<?xml version='1.0' encoding='UTF-8'?>
<gpx version="1.1" creator="https://www.komoot.de" xmlns="http://www.topografix.com/GPX/1/1" xmlns:xsi="http://www.w3.org/2001/XMLSchema-instance" xsi:schemaLocation="http://www.topografix.com/GPX/1/1 http://www.topografix.com/GPX/1/1/gpx.xsd">
  <metadata>
    <name>Wanderung Kopie</name>
    <author>
      <link href="https://www.komoot.de">
        <text>komoot</text>
        <type>text/html</type>
      </link>
    </author>
  </metadata>
  <trk>
    <name>Wanderung Kopie</name>
    <trkseg>
      <trkpt lat="41.832597" lon="9.319091">
        <ele>152.035272</ele>
        <time>2025-09-02T14:59:21.222Z</time>
      </trkpt>
      <trkpt lat="41.832438" lon="9.318608">
        <ele>152.035272</ele>
        <time>2025-09-02T15:00:00.597Z</time>
      </trkpt>
      <trkpt lat="41.832412" lon="9.318484">
        <ele>152.035272</ele>
        <time>2025-09-02T15:00:10.205Z</time>
      </trkpt>
      <trkpt lat="41.832352" lon="9.318246">
        <ele>152.035272</ele>
        <time>2025-09-02T15:00:28.952Z</time>
      </trkpt>
      <trkpt lat="41.832256" lon="9.317969">
        <ele>152.006428</ele>
        <time>2025-09-02T15:00:51.757Z</time>
      </trkpt>
      <trkpt lat="41.832152" lon="9.317806">
        <ele>151.072144</ele>
        <time>2025-09-02T15:01:07.774Z</time>
      </trkpt>
      <trkpt lat="41.832080" lon="9.317717">
        <ele>150.500189</ele>
        <time>2025-09-02T15:01:17.577Z</time>
      </trkpt>
      <trkpt lat="41.832038" lon="9.317597">
        <ele>149.922975</ele>
        <time>2025-09-02T15:01:27.483Z</time>
      </trkpt>
      <trkpt lat="41.831865" lon="9.317200">
        <ele>147.920653</ele>
        <time>2025-09-02T15:02:01.829Z</time>
      </trkpt>
      <trkpt lat="41.831756" lon="9.316893">
        <ele>146.440070</ele>
        <time>2025-09-02T15:02:27.216Z</time>
      </trkpt>
      <trkpt lat="41.831719" lon="9.316778">
        <ele>145.894707</ele>
        <time>2025-09-02T15:02:36.564Z</time>
      </trkpt>
      <trkpt lat="41.831632" lon="9.316586">
        <ele>144.916352</ele>
        <time>2025-09-02T15:02:53.348Z</time>
      </trkpt>
      <trkpt lat="41.831552" lon="9.316515">
        <ele>144.355941</ele>
        <time>2025-09-02T15:03:02.961Z</time>
      </trkpt>
      <trkpt lat="41.831560" lon="9.316392">
        <ele>143.818394</ele>
        <time>2025-09-02T15:03:12.206Z</time>
      </trkpt>
      <trkpt lat="41.831566" lon="9.316261">
        <ele>143.246976</ele>
        <time>2025-09-02T15:03:22.027Z</time>
      </trkpt>
      <trkpt lat="41.831534" lon="9.316144">
        <ele>142.704355</ele>
        <time>2025-09-02T15:03:31.352Z</time>
      </trkpt>
      <trkpt lat="41.831493" lon="9.316035">
        <ele>142.172755</ele>
        <time>2025-09-02T15:03:40.488Z</time>
      </trkpt>
      <trkpt lat="41.831466" lon="9.315919">
        <ele>141.643652</ele>
        <time>2025-09-02T15:03:49.567Z</time>
      </trkpt>
      <trkpt lat="41.831444" lon="9.315790">
        <ele>141.463229</ele>
        <time>2025-09-02T15:03:59.457Z</time>
      </trkpt>
      <trkpt lat="41.831442" lon="9.315652">
        <ele>141.381398</ele>
        <time>2025-09-02T15:04:09.760Z</time>
      </trkpt>
      <trkpt lat="41.831432" lon="9.315532">
        <ele>141.309811</ele>
        <time>2025-09-02T15:04:18.768Z</time>
      </trkpt>
      <trkpt lat="41.831382" lon="9.315428">
        <ele>141.236432</ele>
        <time>2025-09-02T15:04:28.004Z</time>
      </trkpt>
      <trkpt lat="41.831376" lon="9.315260">
        <ele>141.136716</ele>
        <time>2025-09-02T15:04:40.552Z</time>
      </trkpt>
      <trkpt lat="41.831361" lon="9.315141">
        <ele>141.065163</ele>
        <time>2025-09-02T15:04:49.554Z</time>
      </trkpt>
      <trkpt lat="41.831316" lon="9.315028">
        <ele>140.989201</ele>
        <time>2025-09-02T15:04:59.114Z</time>
      </trkpt>
      <trkpt lat="41.831262" lon="9.314926">
        <ele>140.915018</ele>
        <time>2025-09-02T15:05:08.446Z</time>
      </trkpt>
      <trkpt lat="41.831226" lon="9.314811">
        <ele>140.841066</ele>
        <time>2025-09-02T15:05:17.748Z</time>
      </trkpt>
      <trkpt lat="41.831204" lon="9.314687">
        <ele>140.765495</ele>
        <time>2025-09-02T15:05:27.253Z</time>
      </trkpt>
      <trkpt lat="41.831161" lon="9.314564">
        <ele>140.684945</ele>
        <time>2025-09-02T15:05:37.384Z</time>
      </trkpt>
      <trkpt lat="41.831097" lon="9.314471">
        <ele>140.609890</ele>
        <time>2025-09-02T15:05:46.825Z</time>
      </trkpt>
      <trkpt lat="41.830962" lon="9.314285">
        <ele>140.455947</ele>
        <time>2025-09-02T15:06:06.188Z</time>
      </trkpt>
      <trkpt lat="41.830890" lon="9.314210">
        <ele>140.383427</ele>
        <time>2025-09-02T15:06:15.309Z</time>
      </trkpt>
      <trkpt lat="41.830815" lon="9.314137">
        <ele>140.309709</ele>
        <time>2025-09-02T15:06:24.583Z</time>
      </trkpt>
      <trkpt lat="41.830797" lon="9.314016">
        <ele>140.236556</ele>
        <time>2025-09-02T15:06:33.789Z</time>
      </trkpt>
      <trkpt lat="41.830885" lon="9.313874">
        <ele>140.127056</ele>
        <time>2025-09-02T15:06:47.577Z</time>
      </trkpt>
      <trkpt lat="41.830853" lon="9.313727">
        <ele>140.595117</ele>
        <time>2025-09-02T15:06:59.016Z</time>
      </trkpt>
      <trkpt lat="41.830693" lon="9.313566">
        <ele>141.963461</ele>
        <time>2025-09-02T15:07:19.068Z</time>
      </trkpt>
      <trkpt lat="41.830517" lon="9.313470">
        <ele>143.263399</ele>
        <time>2025-09-02T15:07:38.112Z</time>
      </trkpt>
      <trkpt lat="41.830428" lon="9.313448">
        <ele>143.882622</ele>
        <time>2025-09-02T15:07:47.182Z</time>
      </trkpt>
      <trkpt lat="41.830337" lon="9.313473">
        <ele>144.518198</ele>
        <time>2025-09-02T15:07:56.491Z</time>
      </trkpt>
      <trkpt lat="41.830160" lon="9.313400">
        <ele>145.785212</ele>
        <time>2025-09-02T15:08:15.049Z</time>
      </trkpt>
      <trkpt lat="41.830080" lon="9.313339">
        <ele>146.414791</ele>
        <time>2025-09-02T15:08:24.273Z</time>
      </trkpt>
      <trkpt lat="41.829913" lon="9.313189">
        <ele>147.789791</ele>
        <time>2025-09-02T15:08:44.421Z</time>
      </trkpt>
      <trkpt lat="41.829821" lon="9.313176">
        <ele>148.422777</ele>
        <time>2025-09-02T15:08:53.696Z</time>
      </trkpt>
      <trkpt lat="41.829726" lon="9.313173">
        <ele>149.072991</ele>
        <time>2025-09-02T15:09:03.229Z</time>
      </trkpt>
      <trkpt lat="41.829633" lon="9.313187">
        <ele>149.713331</ele>
        <time>2025-09-02T15:09:12.621Z</time>
      </trkpt>
      <trkpt lat="41.829492" lon="9.313218">
        <ele>150.690979</ele>
        <time>2025-09-02T15:09:26.962Z</time>
      </trkpt>
      <trkpt lat="41.829395" lon="9.313214">
        <ele>151.355011</ele>
        <time>2025-09-02T15:09:36.701Z</time>
      </trkpt>
      <trkpt lat="41.829302" lon="9.313189">
        <ele>152.004001</ele>
        <time>2025-09-02T15:09:46.223Z</time>
      </trkpt>
      <trkpt lat="41.829204" lon="9.313214">
        <ele>152.796197</ele>
        <time>2025-09-02T15:09:56.242Z</time>
      </trkpt>
      <trkpt lat="41.829115" lon="9.313261">
        <ele>153.702410</ele>
        <time>2025-09-02T15:10:05.847Z</time>
      </trkpt>
      <trkpt lat="41.829029" lon="9.313221">
        <ele>154.564811</ele>
        <time>2025-09-02T15:10:14.993Z</time>
      </trkpt>
      <trkpt lat="41.828934" lon="9.313221">
        <ele>155.464936</ele>
        <time>2025-09-02T15:10:24.533Z</time>
      </trkpt>
      <trkpt lat="41.828843" lon="9.313226">
        <ele>156.327883</ele>
        <time>2025-09-02T15:10:33.677Z</time>
      </trkpt>
      <trkpt lat="41.828745" lon="9.313190">
        <ele>157.290591</ele>
        <time>2025-09-02T15:10:43.875Z</time>
      </trkpt>
      <trkpt lat="41.828663" lon="9.313136">
        <ele>158.156042</ele>
        <time>2025-09-02T15:10:53.042Z</time>
      </trkpt>
      <trkpt lat="41.828580" lon="9.313077">
        <ele>159.045975</ele>
        <time>2025-09-02T15:11:02.474Z</time>
      </trkpt>
      <trkpt lat="41.828505" lon="9.312996">
        <ele>159.958134</ele>
        <time>2025-09-02T15:11:12.142Z</time>
      </trkpt>
      <trkpt lat="41.828410" lon="9.312960">
        <ele>160.893456</ele>
        <time>2025-09-02T15:11:22.058Z</time>
      </trkpt>
      <trkpt lat="41.828316" lon="9.312912">
        <ele>161.846402</ele>
        <time>2025-09-02T15:11:32.165Z</time>
      </trkpt>
      <trkpt lat="41.828232" lon="9.312846">
        <ele>162.768677</ele>
        <time>2025-09-02T15:11:41.943Z</time>
      </trkpt>
      <trkpt lat="41.828149" lon="9.312790">
        <ele>163.648897</ele>
        <time>2025-09-02T15:11:51.273Z</time>
      </trkpt>
      <trkpt lat="41.828054" lon="9.312767">
        <ele>164.563552</ele>
        <time>2025-09-02T15:12:00.964Z</time>
      </trkpt>
      <trkpt lat="41.827913" lon="9.312696">
        <ele>165.990477</ele>
        <time>2025-09-02T15:12:16.085Z</time>
      </trkpt>
      <trkpt lat="41.827823" lon="9.312662">
        <ele>166.876370</ele>
        <time>2025-09-02T15:12:25.479Z</time>
      </trkpt>
      <trkpt lat="41.827737" lon="9.312626">
        <ele>167.729941</ele>
        <time>2025-09-02T15:12:34.533Z</time>
      </trkpt>
      <trkpt lat="41.827658" lon="9.312568">
        <ele>168.583159</ele>
        <time>2025-09-02T15:12:43.587Z</time>
      </trkpt>
      <trkpt lat="41.827588" lon="9.312480">
        <ele>169.509199</ele>
        <time>2025-09-02T15:12:53.229Z</time>
      </trkpt>
      <trkpt lat="41.827497" lon="9.312450">
        <ele>170.714599</ele>
        <time>2025-09-02T15:13:02.643Z</time>
      </trkpt>
      <trkpt lat="41.827406" lon="9.312401">
        <ele>171.975909</ele>
        <time>2025-09-02T15:13:12.489Z</time>
      </trkpt>
      <trkpt lat="41.827313" lon="9.312379">
        <ele>173.190677</ele>
        <time>2025-09-02T15:13:21.977Z</time>
      </trkpt>
      <trkpt lat="41.827150" lon="9.312389">
        <ele>175.289650</ele>
        <time>2025-09-02T15:13:38.384Z</time>
      </trkpt>
      <trkpt lat="41.827060" lon="9.312423">
        <ele>176.492380</ele>
        <time>2025-09-02T15:13:47.793Z</time>
      </trkpt>
      <trkpt lat="41.826965" lon="9.312428">
        <ele>177.715371</ele>
        <time>2025-09-02T15:13:57.371Z</time>
      </trkpt>
      <trkpt lat="41.826887" lon="9.312340">
        <ele>179.026206</ele>
        <time>2025-09-02T15:14:07.643Z</time>
      </trkpt>
      <trkpt lat="41.826805" lon="9.312122">
        <ele>181.366996</ele>
        <time>2025-09-02T15:14:26.004Z</time>
      </trkpt>
      <trkpt lat="41.826759" lon="9.312014">
        <ele>182.559418</ele>
        <time>2025-09-02T15:14:35.366Z</time>
      </trkpt>
      <trkpt lat="41.826673" lon="9.311955">
        <ele>183.801874</ele>
        <time>2025-09-02T15:14:45.109Z</time>
      </trkpt>
      <trkpt lat="41.826618" lon="9.311778">
        <ele>185.640128</ele>
        <time>2025-09-02T15:14:59.514Z</time>
      </trkpt>
      <trkpt lat="41.826648" lon="9.311610">
        <ele>187.296102</ele>
        <time>2025-09-02T15:15:12.484Z</time>
      </trkpt>
      <trkpt lat="41.826618" lon="9.311264">
        <ele>190.635093</ele>
        <time>2025-09-02T15:15:38.649Z</time>
      </trkpt>
      <trkpt lat="41.826595" lon="9.311145">
        <ele>191.813524</ele>
        <time>2025-09-02T15:15:47.905Z</time>
      </trkpt>
      <trkpt lat="41.826517" lon="9.311085">
        <ele>192.935669</ele>
        <time>2025-09-02T15:15:56.994Z</time>
      </trkpt>
      <trkpt lat="41.826413" lon="9.310919">
        <ele>194.830890</ele>
        <time>2025-09-02T15:16:13.334Z</time>
      </trkpt>
      <trkpt lat="41.826340" lon="9.310759">
        <ele>196.470364</ele>
        <time>2025-09-02T15:16:27.451Z</time>
      </trkpt>
      <trkpt lat="41.826245" lon="9.310776">
        <ele>197.594315</ele>
        <time>2025-09-02T15:16:37.122Z</time>
      </trkpt>
      <trkpt lat="41.826083" lon="9.310653">
        <ele>199.777126</ele>
        <time>2025-09-02T15:16:55.907Z</time>
      </trkpt>
      <trkpt lat="41.825994" lon="9.310609">
        <ele>200.889426</ele>
        <time>2025-09-02T15:17:05.482Z</time>
      </trkpt>
      <trkpt lat="41.825913" lon="9.310540">
        <ele>202.014554</ele>
        <time>2025-09-02T15:17:15.159Z</time>
      </trkpt>
      <trkpt lat="41.825801" lon="9.310450">
        <ele>203.545481</ele>
        <time>2025-09-02T15:17:28.311Z</time>
      </trkpt>
      <trkpt lat="41.825721" lon="9.310369">
        <ele>204.720741</ele>
        <time>2025-09-02T15:17:38.394Z</time>
      </trkpt>
      <trkpt lat="41.825640" lon="9.310308">
        <ele>205.810003</ele>
        <time>2025-09-02T15:17:47.730Z</time>
      </trkpt>
      <trkpt lat="41.825560" lon="9.310239">
        <ele>206.925249</ele>
        <time>2025-09-02T15:17:57.285Z</time>
      </trkpt>
      <trkpt lat="41.825478" lon="9.310174">
        <ele>208.042120</ele>
        <time>2025-09-02T15:18:06.847Z</time>
      </trkpt>
      <trkpt lat="41.825290" lon="9.310139">
        <ele>210.267961</ele>
        <time>2025-09-02T15:18:25.888Z</time>
      </trkpt>
      <trkpt lat="41.825204" lon="9.310087">
        <ele>211.374155</ele>
        <time>2025-09-02T15:18:35.354Z</time>
      </trkpt>
      <trkpt lat="41.825123" lon="9.310016">
        <ele>212.508749</ele>
        <time>2025-09-02T15:18:45.061Z</time>
      </trkpt>
      <trkpt lat="41.825040" lon="9.309954">
        <ele>213.622751</ele>
        <time>2025-09-02T15:18:54.597Z</time>
      </trkpt>
      <trkpt lat="41.824966" lon="9.309876">
        <ele>214.133116</ele>
        <time>2025-09-02T15:19:04.045Z</time>
      </trkpt>
      <trkpt lat="41.824880" lon="9.309823">
        <ele>214.617255</ele>
        <time>2025-09-02T15:19:13.547Z</time>
      </trkpt>
      <trkpt lat="41.824791" lon="9.309773">
        <ele>215.110856</ele>
        <time>2025-09-02T15:19:23.232Z</time>
      </trkpt>
      <trkpt lat="41.824698" lon="9.309746">
        <ele>215.597637</ele>
        <time>2025-09-02T15:19:32.776Z</time>
      </trkpt>
      <trkpt lat="41.824602" lon="9.309737">
        <ele>216.089955</ele>
        <time>2025-09-02T15:19:42.423Z</time>
      </trkpt>
      <trkpt lat="41.824519" lon="9.309669">
        <ele>216.587450</ele>
        <time>2025-09-02T15:19:52.170Z</time>
      </trkpt>
      <trkpt lat="41.824606" lon="9.309718">
        <ele>217.070140</ele>
        <time>2025-09-02T15:20:01.622Z</time>
      </trkpt>
      <trkpt lat="41.824525" lon="9.309666">
        <ele>217.529501</ele>
        <time>2025-09-02T15:20:10.618Z</time>
      </trkpt>
      <trkpt lat="41.824463" lon="9.309566">
        <ele>218.025424</ele>
        <time>2025-09-02T15:20:20.330Z</time>
      </trkpt>
      <trkpt lat="41.824410" lon="9.309462">
        <ele>218.505749</ele>
        <time>2025-09-02T15:20:29.734Z</time>
      </trkpt>
      <trkpt lat="41.824380" lon="9.309341">
        <ele>218.991898</ele>
        <time>2025-09-02T15:20:39.252Z</time>
      </trkpt>
      <trkpt lat="41.824321" lon="9.309233">
        <ele>219.502411</ele>
        <time>2025-09-02T15:20:49.245Z</time>
      </trkpt>
      <trkpt lat="41.824253" lon="9.309147">
        <ele>219.980438</ele>
        <time>2025-09-02T15:20:58.601Z</time>
      </trkpt>
      <trkpt lat="41.823867" lon="9.309005">
        <ele>222.028014</ele>
        <time>2025-09-02T15:21:38.670Z</time>
      </trkpt>
      <trkpt lat="41.823780" lon="9.308962">
        <ele>222.502322</ele>
        <time>2025-09-02T15:21:47.951Z</time>
      </trkpt>
      <trkpt lat="41.823701" lon="9.308894">
        <ele>222.910931</ele>
        <time>2025-09-02T15:21:57.348Z</time>
      </trkpt>
      <trkpt lat="41.823620" lon="9.308838">
        <ele>223.064662</ele>
        <time>2025-09-02T15:22:06.470Z</time>
      </trkpt>
      <trkpt lat="41.823540" lon="9.308773">
        <ele>223.222448</ele>
        <time>2025-09-02T15:22:15.832Z</time>
      </trkpt>
      <trkpt lat="41.823453" lon="9.308735">
        <ele>223.376811</ele>
        <time>2025-09-02T15:22:24.991Z</time>
      </trkpt>
      <trkpt lat="41.823210" lon="9.308590">
        <ele>223.825497</ele>
        <time>2025-09-02T15:22:51.608Z</time>
      </trkpt>
      <trkpt lat="41.823127" lon="9.308546">
        <ele>223.976063</ele>
        <time>2025-09-02T15:23:00.540Z</time>
      </trkpt>
      <trkpt lat="41.823030" lon="9.308565">
        <ele>224.141452</ele>
        <time>2025-09-02T15:23:10.350Z</time>
      </trkpt>
      <trkpt lat="41.822935" lon="9.308581">
        <ele>224.302989</ele>
        <time>2025-09-02T15:23:19.932Z</time>
      </trkpt>
      <trkpt lat="41.822843" lon="9.308593">
        <ele>224.458940</ele>
        <time>2025-09-02T15:23:29.183Z</time>
      </trkpt>
      <trkpt lat="41.822783" lon="9.308503">
        <ele>224.610768</ele>
        <time>2025-09-02T15:23:38.189Z</time>
      </trkpt>
      <trkpt lat="41.822682" lon="9.308418">
        <ele>224.811911</ele>
        <time>2025-09-02T15:23:50.120Z</time>
      </trkpt>
      <trkpt lat="41.822628" lon="9.308319">
        <ele>224.966163</ele>
        <time>2025-09-02T15:23:59.270Z</time>
      </trkpt>
      <trkpt lat="41.822549" lon="9.308249">
        <ele>225.125885</ele>
        <time>2025-09-02T15:24:08.745Z</time>
      </trkpt>
      <trkpt lat="41.822471" lon="9.308189">
        <ele>225.277572</ele>
        <time>2025-09-02T15:24:17.744Z</time>
      </trkpt>
      <trkpt lat="41.822398" lon="9.308108">
        <ele>225.437386</ele>
        <time>2025-09-02T15:24:27.226Z</time>
      </trkpt>
      <trkpt lat="41.822381" lon="9.307909">
        <ele>225.689228</ele>
        <time>2025-09-02T15:24:42.169Z</time>
      </trkpt>
      <trkpt lat="41.822448" lon="9.307813">
        <ele>225.854596</ele>
        <time>2025-09-02T15:24:51.980Z</time>
      </trkpt>
      <trkpt lat="41.822545" lon="9.307625">
        <ele>225.718650</ele>
        <time>2025-09-02T15:25:09.035Z</time>
      </trkpt>
      <trkpt lat="41.822418" lon="9.307917">
        <ele>225.367079</ele>
        <time>2025-09-02T15:25:34.250Z</time>
      </trkpt>
      <trkpt lat="41.822203" lon="9.307880">
        <ele>225.064614</ele>
        <time>2025-09-02T15:25:55.943Z</time>
      </trkpt>
      <trkpt lat="41.822043" lon="9.307742">
        <ele>224.799211</ele>
        <time>2025-09-02T15:26:14.978Z</time>
      </trkpt>
      <trkpt lat="41.822004" lon="9.307633">
        <ele>224.673478</ele>
        <time>2025-09-02T15:26:23.996Z</time>
      </trkpt>
      <trkpt lat="41.822009" lon="9.307502">
        <ele>224.537077</ele>
        <time>2025-09-02T15:26:33.779Z</time>
      </trkpt>
      <trkpt lat="41.822055" lon="9.307393">
        <ele>224.406818</ele>
        <time>2025-09-02T15:26:43.121Z</time>
      </trkpt>
      <trkpt lat="41.822095" lon="9.307284">
        <ele>224.280475</ele>
        <time>2025-09-02T15:26:52.183Z</time>
      </trkpt>
      <trkpt lat="41.822105" lon="9.307163">
        <ele>224.153880</ele>
        <time>2025-09-02T15:27:01.263Z</time>
      </trkpt>
      <trkpt lat="41.822101" lon="9.307039">
        <ele>224.024815</ele>
        <time>2025-09-02T15:27:10.520Z</time>
      </trkpt>
      <trkpt lat="41.822253" lon="9.306938">
        <ele>223.788137</ele>
        <time>2025-09-02T15:27:27.497Z</time>
      </trkpt>
      <trkpt lat="41.822328" lon="9.307007">
        <ele>223.661249</ele>
        <time>2025-09-02T15:27:36.601Z</time>
      </trkpt>
      <trkpt lat="41.822422" lon="9.307003">
        <ele>223.530017</ele>
        <time>2025-09-02T15:27:46.018Z</time>
      </trkpt>
      <trkpt lat="41.822502" lon="9.306930">
        <ele>223.367172</ele>
        <time>2025-09-02T15:27:55.708Z</time>
      </trkpt>
      <trkpt lat="41.822593" lon="9.306919">
        <ele>222.595021</ele>
        <time>2025-09-02T15:28:04.865Z</time>
      </trkpt>
      <trkpt lat="41.822667" lon="9.306843">
        <ele>221.807509</ele>
        <time>2025-09-02T15:28:14.208Z</time>
      </trkpt>
      <trkpt lat="41.822721" lon="9.306734">
        <ele>220.983204</ele>
        <time>2025-09-02T15:28:23.990Z</time>
      </trkpt>
      <trkpt lat="41.822731" lon="9.306611">
        <ele>220.203984</ele>
        <time>2025-09-02T15:28:33.235Z</time>
      </trkpt>
      <trkpt lat="41.822782" lon="9.306326">
        <ele>218.358102</ele>
        <time>2025-09-02T15:28:55.141Z</time>
      </trkpt>
      <trkpt lat="41.822808" lon="9.306206">
        <ele>217.571078</ele>
        <time>2025-09-02T15:29:04.482Z</time>
      </trkpt>
      <trkpt lat="41.822859" lon="9.306103">
        <ele>216.792278</ele>
        <time>2025-09-02T15:29:13.729Z</time>
      </trkpt>
      <trkpt lat="41.822992" lon="9.305922">
        <ele>215.191442</ele>
        <time>2025-09-02T15:29:32.743Z</time>
      </trkpt>
      <trkpt lat="41.823076" lon="9.305878">
        <ele>214.429396</ele>
        <time>2025-09-02T15:29:41.801Z</time>
      </trkpt>
      <trkpt lat="41.823151" lon="9.305950">
        <ele>213.650079</ele>
        <time>2025-09-02T15:29:51.066Z</time>
      </trkpt>
      <trkpt lat="41.823224" lon="9.306030">
        <ele>212.853573</ele>
        <time>2025-09-02T15:30:00.541Z</time>
      </trkpt>
      <trkpt lat="41.823317" lon="9.305988">
        <ele>212.024319</ele>
        <time>2025-09-02T15:30:10.409Z</time>
      </trkpt>
      <trkpt lat="41.823415" lon="9.305970">
        <ele>211.188403</ele>
        <time>2025-09-02T15:30:20.353Z</time>
      </trkpt>
      <trkpt lat="41.823500" lon="9.306017">
        <ele>210.411479</ele>
        <time>2025-09-02T15:30:29.597Z</time>
      </trkpt>
      <trkpt lat="41.823578" lon="9.306082">
        <ele>209.635542</ele>
        <time>2025-09-02T15:30:38.826Z</time>
      </trkpt>
      <trkpt lat="41.823639" lon="9.306171">
        <ele>208.874030</ele>
        <time>2025-09-02T15:30:47.888Z</time>
      </trkpt>
      <trkpt lat="41.823706" lon="9.306276">
        <ele>207.959079</ele>
        <time>2025-09-02T15:30:58.247Z</time>
      </trkpt>
      <trkpt lat="41.823829" lon="9.306317">
        <ele>206.646357</ele>
        <time>2025-09-02T15:31:11.003Z</time>
      </trkpt>
      <trkpt lat="41.823918" lon="9.306289">
        <ele>205.699520</ele>
        <time>2025-09-02T15:31:20.204Z</time>
      </trkpt>
      <trkpt lat="41.824004" lon="9.306225">
        <ele>204.680945</ele>
        <time>2025-09-02T15:31:30.099Z</time>
      </trkpt>
      <trkpt lat="41.824082" lon="9.306163">
        <ele>203.741944</ele>
        <time>2025-09-02T15:31:39.222Z</time>
      </trkpt>
      <trkpt lat="41.824176" lon="9.306183">
        <ele>202.756151</ele>
        <time>2025-09-02T15:31:48.793Z</time>
      </trkpt>
      <trkpt lat="41.824302" lon="9.306099">
        <ele>201.298893</ele>
        <time>2025-09-02T15:32:02.933Z</time>
      </trkpt>
      <trkpt lat="41.824389" lon="9.306062">
        <ele>200.353595</ele>
        <time>2025-09-02T15:32:12.106Z</time>
      </trkpt>
      <trkpt lat="41.824459" lon="9.305974">
        <ele>199.360095</ele>
        <time>2025-09-02T15:32:21.744Z</time>
      </trkpt>
      <trkpt lat="41.824550" lon="9.305933">
        <ele>198.365831</ele>
        <time>2025-09-02T15:32:31.389Z</time>
      </trkpt>
      <trkpt lat="41.824733" lon="9.305856">
        <ele>196.379368</ele>
        <time>2025-09-02T15:32:50.663Z</time>
      </trkpt>
      <trkpt lat="41.824831" lon="9.305853">
        <ele>195.364042</ele>
        <time>2025-09-02T15:33:00.518Z</time>
      </trkpt>
      <trkpt lat="41.824924" lon="9.305891">
        <ele>194.357105</ele>
        <time>2025-09-02T15:33:10.286Z</time>
      </trkpt>
      <trkpt lat="41.825019" lon="9.305877">
        <ele>193.367201</ele>
        <time>2025-09-02T15:33:19.885Z</time>
      </trkpt>
      <trkpt lat="41.825113" lon="9.305859">
        <ele>192.383708</ele>
        <time>2025-09-02T15:33:29.421Z</time>
      </trkpt>
      <trkpt lat="41.825191" lon="9.305791">
        <ele>191.420285</ele>
        <time>2025-09-02T15:33:38.761Z</time>
      </trkpt>
      <trkpt lat="41.825243" lon="9.305691">
        <ele>190.479096</ele>
        <time>2025-09-02T15:33:47.886Z</time>
      </trkpt>
      <trkpt lat="41.825315" lon="9.305615">
        <ele>189.528427</ele>
        <time>2025-09-02T15:33:57.084Z</time>
      </trkpt>
      <trkpt lat="41.825379" lon="9.305516">
        <ele>188.470086</ele>
        <time>2025-09-02T15:34:06.886Z</time>
      </trkpt>
      <trkpt lat="41.825458" lon="9.305456">
        <ele>187.486411</ele>
        <time>2025-09-02T15:34:16.002Z</time>
      </trkpt>
      <trkpt lat="41.825535" lon="9.305383">
        <ele>186.464783</ele>
        <time>2025-09-02T15:34:25.474Z</time>
      </trkpt>
      <trkpt lat="41.825632" lon="9.305357">
        <ele>185.392886</ele>
        <time>2025-09-02T15:34:35.416Z</time>
      </trkpt>
      <trkpt lat="41.825723" lon="9.305358">
        <ele>184.406737</ele>
        <time>2025-09-02T15:34:44.572Z</time>
      </trkpt>
      <trkpt lat="41.825803" lon="9.305301">
        <ele>183.425208</ele>
        <time>2025-09-02T15:34:53.676Z</time>
      </trkpt>
      <trkpt lat="41.825902" lon="9.305295">
        <ele>182.351307</ele>
        <time>2025-09-02T15:35:03.641Z</time>
      </trkpt>
      <trkpt lat="41.825983" lon="9.305358">
        <ele>181.336787</ele>
        <time>2025-09-02T15:35:13.057Z</time>
      </trkpt>
      <trkpt lat="41.826073" lon="9.305410">
        <ele>180.274954</ele>
        <time>2025-09-02T15:35:22.909Z</time>
      </trkpt>
      <trkpt lat="41.826165" lon="9.305432">
        <ele>179.262297</ele>
        <time>2025-09-02T15:35:32.312Z</time>
      </trkpt>
      <trkpt lat="41.826259" lon="9.305409">
        <ele>178.226879</ele>
        <time>2025-09-02T15:35:41.929Z</time>
      </trkpt>
      <trkpt lat="41.826351" lon="9.305402">
        <ele>177.228325</ele>
        <time>2025-09-02T15:35:51.208Z</time>
      </trkpt>
      <trkpt lat="41.826508" lon="9.305419">
        <ele>175.521475</ele>
        <time>2025-09-02T15:36:07.076Z</time>
      </trkpt>
      <trkpt lat="41.826770" lon="9.305365">
        <ele>172.649037</ele>
        <time>2025-09-02T15:36:33.767Z</time>
      </trkpt>
      <trkpt lat="41.826853" lon="9.305310">
        <ele>171.645938</ele>
        <time>2025-09-02T15:36:43.077Z</time>
      </trkpt>
      <trkpt lat="41.827117" lon="9.304989">
        <ele>168.617139</ele>
        <time>2025-09-02T15:37:18.883Z</time>
      </trkpt>
      <trkpt lat="41.827339" lon="9.305010">
        <ele>167.079799</ele>
        <time>2025-09-02T15:37:41.232Z</time>
      </trkpt>
      <trkpt lat="41.827398" lon="9.305112">
        <ele>166.415143</ele>
        <time>2025-09-02T15:37:50.895Z</time>
      </trkpt>
      <trkpt lat="41.827398" lon="9.305245">
        <ele>165.730537</ele>
        <time>2025-09-02T15:38:00.850Z</time>
      </trkpt>
      <trkpt lat="41.827544" lon="9.305405">
        <ele>164.428444</ele>
        <time>2025-09-02T15:38:19.776Z</time>
      </trkpt>
      <trkpt lat="41.827670" lon="9.305478">
        <ele>163.480412</ele>
        <time>2025-09-02T15:38:33.551Z</time>
      </trkpt>
      <trkpt lat="41.827727" lon="9.305668">
        <ele>162.426123</ele>
        <time>2025-09-02T15:38:48.858Z</time>
      </trkpt>
      <trkpt lat="41.827753" lon="9.305822">
        <ele>161.613335</ele>
        <time>2025-09-02T15:39:00.650Z</time>
      </trkpt>
      <trkpt lat="41.827815" lon="9.305926">
        <ele>160.927767</ele>
        <time>2025-09-02T15:39:10.591Z</time>
      </trkpt>
      <trkpt lat="41.827884" lon="9.306017">
        <ele>160.259491</ele>
        <time>2025-09-02T15:39:20.279Z</time>
      </trkpt>
      <trkpt lat="41.827939" lon="9.306125">
        <ele>159.586149</ele>
        <time>2025-09-02T15:39:30.038Z</time>
      </trkpt>
      <trkpt lat="41.828029" lon="9.306158">
        <ele>158.941659</ele>
        <time>2025-09-02T15:39:39.378Z</time>
      </trkpt>
      <trkpt lat="41.828111" lon="9.306093">
        <ele>158.283785</ele>
        <time>2025-09-02T15:39:48.910Z</time>
      </trkpt>
      <trkpt lat="41.828232" lon="9.306196">
        <ele>157.648383</ele>
        <time>2025-09-02T15:40:03.251Z</time>
      </trkpt>
      <trkpt lat="41.828399" lon="9.306105">
        <ele>157.626437</ele>
        <time>2025-09-02T15:40:21.291Z</time>
      </trkpt>
      <trkpt lat="41.828586" lon="9.306027">
        <ele>157.602594</ele>
        <time>2025-09-02T15:40:40.889Z</time>
      </trkpt>
      <trkpt lat="41.828660" lon="9.305953">
        <ele>157.591358</ele>
        <time>2025-09-02T15:40:50.124Z</time>
      </trkpt>
      <trkpt lat="41.828729" lon="9.305874">
        <ele>157.580314</ele>
        <time>2025-09-02T15:40:59.201Z</time>
      </trkpt>
      <trkpt lat="41.828971" lon="9.305569">
        <ele>157.539893</ele>
        <time>2025-09-02T15:41:32.432Z</time>
      </trkpt>
      <trkpt lat="41.829027" lon="9.305464">
        <ele>157.528178</ele>
        <time>2025-09-02T15:41:42.064Z</time>
      </trkpt>
      <trkpt lat="41.829110" lon="9.305405">
        <ele>157.516742</ele>
        <time>2025-09-02T15:41:51.465Z</time>
      </trkpt>
      <trkpt lat="41.829194" lon="9.305361">
        <ele>157.505763</ele>
        <time>2025-09-02T15:42:00.489Z</time>
      </trkpt>
      <trkpt lat="41.829233" lon="9.305244">
        <ele>157.494134</ele>
        <time>2025-09-02T15:42:10.047Z</time>
      </trkpt>
      <trkpt lat="41.829299" lon="9.305153">
        <ele>157.482613</ele>
        <time>2025-09-02T15:42:19.517Z</time>
      </trkpt>
      <trkpt lat="41.829391" lon="9.305122">
        <ele>157.471064</ele>
        <time>2025-09-02T15:42:29.010Z</time>
      </trkpt>
      <trkpt lat="41.829472" lon="9.305054">
        <ele>157.459431</ele>
        <time>2025-09-02T15:42:38.573Z</time>
      </trkpt>
      <trkpt lat="41.829554" lon="9.304991">
        <ele>157.447926</ele>
        <time>2025-09-02T15:42:48.029Z</time>
      </trkpt>
      <trkpt lat="41.829639" lon="9.304936">
        <ele>157.436437</ele>
        <time>2025-09-02T15:42:57.472Z</time>
      </trkpt>
      <trkpt lat="41.829711" lon="9.304852">
        <ele>157.070102</ele>
        <time>2025-09-02T15:43:07.020Z</time>
      </trkpt>
      <trkpt lat="41.829760" lon="9.304741">
        <ele>156.678278</ele>
        <time>2025-09-02T15:43:16.643Z</time>
      </trkpt>
      <trkpt lat="41.829824" lon="9.304654">
        <ele>156.306991</ele>
        <time>2025-09-02T15:43:25.760Z</time>
      </trkpt>
      <trkpt lat="41.829978" lon="9.304622">
        <ele>155.671842</ele>
        <time>2025-09-02T15:43:41.362Z</time>
      </trkpt>
      <trkpt lat="41.830149" lon="9.304493">
        <ele>154.872320</ele>
        <time>2025-09-02T15:44:01.005Z</time>
      </trkpt>
      <trkpt lat="41.830273" lon="9.304435">
        <ele>154.337107</ele>
        <time>2025-09-02T15:44:14.154Z</time>
      </trkpt>
      <trkpt lat="41.830348" lon="9.304355">
        <ele>153.946632</ele>
        <time>2025-09-02T15:44:23.746Z</time>
      </trkpt>
      <trkpt lat="41.830521" lon="9.304374">
        <ele>153.239164</ele>
        <time>2025-09-02T15:44:41.136Z</time>
      </trkpt>
      <trkpt lat="41.830980" lon="9.304480">
        <ele>151.340884</ele>
        <time>2025-09-02T15:45:27.839Z</time>
      </trkpt>
      <trkpt lat="41.831491" lon="9.305185">
        <ele>148.257555</ele>
        <time>2025-09-02T15:46:41.254Z</time>
      </trkpt>
      <trkpt lat="41.831561" lon="9.305797">
        <ele>146.273672</ele>
        <time>2025-09-02T15:47:27.458Z</time>
      </trkpt>
      <trkpt lat="41.831957" lon="9.306833">
        <ele>142.542924</ele>
        <time>2025-09-02T15:48:54.329Z</time>
      </trkpt>
      <trkpt lat="41.832035" lon="9.306903">
        <ele>142.211537</ele>
        <time>2025-09-02T15:49:03.724Z</time>
      </trkpt>
      <trkpt lat="41.832067" lon="9.307023">
        <ele>141.930675</ele>
        <time>2025-09-02T15:49:13.234Z</time>
      </trkpt>
      <trkpt lat="41.832290" lon="9.307278">
        <ele>141.064227</ele>
        <time>2025-09-02T15:49:42.572Z</time>
      </trkpt>
      <trkpt lat="41.832367" lon="9.307207">
        <ele>140.787933</ele>
        <time>2025-09-02T15:49:51.928Z</time>
      </trkpt>
      <trkpt lat="41.832458" lon="9.307504">
        <ele>140.080280</ele>
        <time>2025-09-02T15:50:15.887Z</time>
      </trkpt>
      <trkpt lat="41.832400" lon="9.307597">
        <ele>139.813028</ele>
        <time>2025-09-02T15:50:24.934Z</time>
      </trkpt>
      <trkpt lat="41.832452" lon="9.307835">
        <ele>139.266481</ele>
        <time>2025-09-02T15:50:43.435Z</time>
      </trkpt>
      <trkpt lat="41.832516" lon="9.307929">
        <ele>138.985885</ele>
        <time>2025-09-02T15:50:52.933Z</time>
      </trkpt>
      <trkpt lat="41.832581" lon="9.308012">
        <ele>138.720541</ele>
        <time>2025-09-02T15:51:01.914Z</time>
      </trkpt>
      <trkpt lat="41.832600" lon="9.308188">
        <ele>138.328654</ele>
        <time>2025-09-02T15:51:15.178Z</time>
      </trkpt>
      <trkpt lat="41.832654" lon="9.308291">
        <ele>138.051125</ele>
        <time>2025-09-02T15:51:24.571Z</time>
      </trkpt>
      <trkpt lat="41.832702" lon="9.308624">
        <ele>137.303714</ele>
        <time>2025-09-02T15:51:49.902Z</time>
      </trkpt>
      <trkpt lat="41.832580" lon="9.308846">
        <ele>136.867949</ele>
        <time>2025-09-02T15:52:11.024Z</time>
      </trkpt>
      <trkpt lat="41.832575" lon="9.308968">
        <ele>136.729219</ele>
        <time>2025-09-02T15:52:20.413Z</time>
      </trkpt>
      <trkpt lat="41.832646" lon="9.309238">
        <ele>136.404127</ele>
        <time>2025-09-02T15:52:42.471Z</time>
      </trkpt>
      <trkpt lat="41.832668" lon="9.309409">
        <ele>136.207099</ele>
        <time>2025-09-02T15:52:55.764Z</time>
      </trkpt>
      <trkpt lat="41.832674" lon="9.309956">
        <ele>135.585963</ele>
        <time>2025-09-02T15:53:37.202Z</time>
      </trkpt>
      <trkpt lat="41.832724" lon="9.310150">
        <ele>135.352888</ele>
        <time>2025-09-02T15:53:52.745Z</time>
      </trkpt>
      <trkpt lat="41.832800" lon="9.310213">
        <ele>135.216766</ele>
        <time>2025-09-02T15:54:01.880Z</time>
      </trkpt>
      <trkpt lat="41.832875" lon="9.310439">
        <ele>134.935864</ele>
        <time>2025-09-02T15:54:20.946Z</time>
      </trkpt>
      <trkpt lat="41.832928" lon="9.310664">
        <ele>134.667935</ele>
        <time>2025-09-02T15:54:39.118Z</time>
      </trkpt>
      <trkpt lat="41.833027" lon="9.310925">
        <ele>134.335405</ele>
        <time>2025-09-02T15:55:01.779Z</time>
      </trkpt>
      <trkpt lat="41.833079" lon="9.310985">
        <ele>134.157674</ele>
        <time>2025-09-02T15:55:09.038Z</time>
      </trkpt>
      <trkpt lat="41.833189" lon="9.311224">
        <ele>133.543508</ele>
        <time>2025-09-02T15:55:31.009Z</time>
      </trkpt>
      <trkpt lat="41.833187" lon="9.311298">
        <ele>133.381618</ele>
        <time>2025-09-02T15:55:36.801Z</time>
      </trkpt>
      <trkpt lat="41.833265" lon="9.311391">
        <ele>133.075479</ele>
        <time>2025-09-02T15:55:47.810Z</time>
      </trkpt>
      <trkpt lat="41.833368" lon="9.311608">
        <ele>132.512975</ele>
        <time>2025-09-02T15:56:08.305Z</time>
      </trkpt>
      <trkpt lat="41.833388" lon="9.311689">
        <ele>132.326418</ele>
        <time>2025-09-02T15:56:15.177Z</time>
      </trkpt>
      <trkpt lat="41.833446" lon="9.311769">
        <ele>132.082383</ele>
        <time>2025-09-02T15:56:24.077Z</time>
      </trkpt>
      <trkpt lat="41.833562" lon="9.312420">
        <ele>130.619001</ele>
        <time>2025-09-02T15:57:17.644Z</time>
      </trkpt>
      <trkpt lat="41.833639" lon="9.312551">
        <ele>130.254213</ele>
        <time>2025-09-02T15:57:30.906Z</time>
      </trkpt>
      <trkpt lat="41.833630" lon="9.312695">
        <ele>129.938288</ele>
        <time>2025-09-02T15:57:42.418Z</time>
      </trkpt>
      <trkpt lat="41.833647" lon="9.312732">
        <ele>129.843254</ele>
        <time>2025-09-02T15:57:45.844Z</time>
      </trkpt>
      <trkpt lat="41.833509" lon="9.313019">
        <ele>129.096488</ele>
        <time>2025-09-02T15:58:13.257Z</time>
      </trkpt>
      <trkpt lat="41.833422" lon="9.313077">
        <ele>128.993718</ele>
        <time>2025-09-02T15:58:23.653Z</time>
      </trkpt>
      <trkpt lat="41.833459" lon="9.313318">
        <ele>128.899512</ele>
        <time>2025-09-02T15:58:42.876Z</time>
      </trkpt>
      <trkpt lat="41.833434" lon="9.313396">
        <ele>128.867004</ele>
        <time>2025-09-02T15:58:49.323Z</time>
      </trkpt>
      <trkpt lat="41.833425" lon="9.313622">
        <ele>128.780356</ele>
        <time>2025-09-02T15:59:06.689Z</time>
      </trkpt>
      <trkpt lat="41.833289" lon="9.313967">
        <ele>128.630924</ele>
        <time>2025-09-02T15:59:36.157Z</time>
      </trkpt>
      <trkpt lat="41.833253" lon="9.314072">
        <ele>128.586673</ele>
        <time>2025-09-02T15:59:44.897Z</time>
      </trkpt>
      <trkpt lat="41.833236" lon="9.314221">
        <ele>128.528963</ele>
        <time>2025-09-02T15:59:56.186Z</time>
      </trkpt>
      <trkpt lat="41.833165" lon="9.314403">
        <ele>128.450310</ele>
        <time>2025-09-02T16:00:11.819Z</time>
      </trkpt>
      <trkpt lat="41.833104" lon="9.314733">
        <ele>128.320138</ele>
        <time>2025-09-02T16:00:38.287Z</time>
      </trkpt>
      <trkpt lat="41.833108" lon="9.315008">
        <ele>128.214833</ele>
        <time>2025-09-02T16:00:59.441Z</time>
      </trkpt>
      <trkpt lat="41.833168" lon="9.315309">
        <ele>128.055358</ele>
        <time>2025-09-02T16:01:23.378Z</time>
      </trkpt>
      <trkpt lat="41.833226" lon="9.315460">
        <ele>127.783919</ele>
        <time>2025-09-02T16:01:36.228Z</time>
      </trkpt>
      <trkpt lat="41.833484" lon="9.315834">
        <ele>126.969552</ele>
        <time>2025-09-02T16:02:15.714Z</time>
      </trkpt>
      <trkpt lat="41.833658" lon="9.316331">
        <ele>126.092159</ele>
        <time>2025-09-02T16:02:57.450Z</time>
      </trkpt>
      <trkpt lat="41.833855" lon="9.316802">
        <ele>125.229140</ele>
        <time>2025-09-02T16:03:40.556Z</time>
      </trkpt>
      <trkpt lat="41.833885" lon="9.316930">
        <ele>125.014745</ele>
        <time>2025-09-02T16:03:51.527Z</time>
      </trkpt>
      <trkpt lat="41.833902" lon="9.317127">
        <ele>124.697879</ele>
        <time>2025-09-02T16:04:07.886Z</time>
      </trkpt>
      <trkpt lat="41.833826" lon="9.317529">
        <ele>123.790399</ele>
        <time>2025-09-02T16:04:42.425Z</time>
      </trkpt>
      <trkpt lat="41.833824" lon="9.317539">
        <ele>123.755098</ele>
        <time>2025-09-02T16:04:43.278Z</time>
      </trkpt>
      <trkpt lat="41.833821" lon="9.317674">
        <ele>123.294625</ele>
        <time>2025-09-02T16:04:54.550Z</time>
      </trkpt>
      <trkpt lat="41.833855" lon="9.317818">
        <ele>122.779611</ele>
        <time>2025-09-02T16:05:07.218Z</time>
      </trkpt>
      <trkpt lat="41.833940" lon="9.317990">
        <ele>122.075932</ele>
        <time>2025-09-02T16:05:24.416Z</time>
      </trkpt>
      <trkpt lat="41.834321" lon="9.318495">
        <ele>119.625659</ele>
        <time>2025-09-02T16:06:24.167Z</time>
      </trkpt>
      <trkpt lat="41.834434" lon="9.318493">
        <ele>119.108541</ele>
        <time>2025-09-02T16:06:36.577Z</time>
      </trkpt>
      <trkpt lat="41.834527" lon="9.318530">
        <ele>118.664682</ele>
        <time>2025-09-02T16:06:47.213Z</time>
      </trkpt>
      <trkpt lat="41.835341" lon="9.319703">
        <ele>115.581867</ele>
        <time>2025-09-02T16:08:53.960Z</time>
      </trkpt>
      <trkpt lat="41.835471" lon="9.319931">
        <ele>115.429580</ele>
        <time>2025-09-02T16:09:15.465Z</time>
      </trkpt>
      <trkpt lat="41.835438" lon="9.320123">
        <ele>115.325064</ele>
        <time>2025-09-02T16:09:30.587Z</time>
      </trkpt>
      <trkpt lat="41.835580" lon="9.320441">
        <ele>115.128414</ele>
        <time>2025-09-02T16:10:00.437Z</time>
      </trkpt>
      <trkpt lat="41.835596" lon="9.320622">
        <ele>115.031734</ele>
        <time>2025-09-02T16:10:14.591Z</time>
      </trkpt>
      <trkpt lat="41.835558" lon="9.320802">
        <ele>114.932499</ele>
        <time>2025-09-02T16:10:28.588Z</time>
      </trkpt>
      <trkpt lat="41.835487" lon="9.320909">
        <ele>114.856498</ele>
        <time>2025-09-02T16:10:39.330Z</time>
      </trkpt>
      <trkpt lat="41.835006" lon="9.321366">
        <ele>114.740300</ele>
        <time>2025-09-02T16:11:38.332Z</time>
      </trkpt>
      <trkpt lat="41.834926" lon="9.321444">
        <ele>114.740300</ele>
        <time>2025-09-02T16:11:48.382Z</time>
      </trkpt>
      <trkpt lat="41.834967" lon="9.321554">
        <ele>114.740300</ele>
        <time>2025-09-02T16:11:57.660Z</time>
      </trkpt>
      <trkpt lat="41.835010" lon="9.321670">
        <ele>114.740300</ele>
        <time>2025-09-02T16:12:07.357Z</time>
      </trkpt>
      <trkpt lat="41.835077" lon="9.321718">
        <ele>114.740300</ele>
        <time>2025-09-02T16:12:15.174Z</time>
      </trkpt>
      <trkpt lat="41.835111" lon="9.321791">
        <ele>114.740300</ele>
        <time>2025-09-02T16:12:21.620Z</time>
      </trkpt>
      <trkpt lat="41.835065" lon="9.322038">
        <ele>114.740300</ele>
        <time>2025-09-02T16:12:41.208Z</time>
      </trkpt>
      <trkpt lat="41.835037" lon="9.322170">
        <ele>114.740300</ele>
        <time>2025-09-02T16:12:51.614Z</time>
      </trkpt>
      <trkpt lat="41.834979" lon="9.322124">
        <ele>114.740300</ele>
        <time>2025-09-02T16:12:58.378Z</time>
      </trkpt>
      <trkpt lat="41.834956" lon="9.322248">
        <ele>114.740300</ele>
        <time>2025-09-02T16:13:07.907Z</time>
      </trkpt>
      <trkpt lat="41.835174" lon="9.322267">
        <ele>114.740300</ele>
        <time>2025-09-02T16:13:29.780Z</time>
      </trkpt>
      <trkpt lat="41.835080" lon="9.322368">
        <ele>114.740300</ele>
        <time>2025-09-02T16:13:41.836Z</time>
      </trkpt>
      <trkpt lat="41.834982" lon="9.322300">
        <ele>114.740300</ele>
        <time>2025-09-02T16:13:52.884Z</time>
      </trkpt>
      <trkpt lat="41.835065" lon="9.322349">
        <ele>114.740300</ele>
        <time>2025-09-02T16:14:01.965Z</time>
      </trkpt>
    </trkseg>
  </trk>
</gpx>